sensor_id;sensor_type;location;lat;lon;timestamp;temperature;humidity
52621;DHT22;38515;53.160;6.990;2023-05-10T00:02:07;13.90;99.90
52621;DHT22;38515;53.160;6.990;2023-05-10T00:04:33;14.00;99.90
52621;DHT22;38515;53.160;6.990;2023-05-10T00:06:59;13.60;99.90
52621;DHT22;38515;53.160;6.990;2023-05-10T00:09:25;13.50;99.90
52621;DHT22;38515;53.160;6.990;2023-05-10T00:11:51;13.40;99.90
52621;DHT22;38515;53.160;6.990;2023-05-10T00:14:17;13.90;99.90
52621;DHT22;38515;53.160;6.990;2023-05-10T00:16:43;13.40;99.90
52621;DHT22;38515;53.160;6.990;2023-05-10T00:19:12;14.00;99.90
52621;DHT22;38515;53.160;6.990;2023-05-10T00:21:38;13.60;99.90
52621;DHT22;38515;53.160;6.990;2023-05-10T00:24:04;13.90;99.90
52621;DHT22;38515;53.160;6.990;2023-05-10T00:26:30;13.90;99.90
52621;DHT22;38515;53.160;6.990;2023-05-10T00:28:55;13.50;99.90
52621;DHT22;38515;53.160;6.990;2023-05-10T00:31:22;14.00;99.90
52621;DHT22;38515;53.160;6.990;2023-05-10T00:33:48;13.40;99.90
52621;DHT22;38515;53.160;6.990;2023-05-10T00:36:14;13.80;99.90
52621;DHT22;38515;53.160;6.990;2023-05-10T00:38:40;13.50;99.90
52621;DHT22;38515;53.160;6.990;2023-05-10T00:41:06;13.70;99.90
52621;DHT22;38515;53.160;6.990;2023-05-10T00:43:32;13.40;99.90
52621;DHT22;38515;53.160;6.990;2023-05-10T00:45:58;13.40;99.90
52621;DHT22;38515;53.160;6.990;2023-05-10T00:48:24;12.90;99.90
52621;DHT22;38515;53.160;6.990;2023-05-10T00:50:50;13.00;99.90
52621;DHT22;38515;53.160;6.990;2023-05-10T00:53:16;12.80;99.90
52621;DHT22;38515;53.160;6.990;2023-05-10T00:55:42;13.10;99.90
52621;DHT22;38515;53.160;6.990;2023-05-10T00:58:09;13.00;99.90
52621;DHT22;38515;53.160;6.990;2023-05-10T01:00:35;13.10;99.90
52621;DHT22;38515;53.160;6.990;2023-05-10T01:03:02;12.90;99.90
52621;DHT22;38515;53.160;6.990;2023-05-10T01:05:28;12.50;99.90
52621;DHT22;38515;53.160;6.990;2023-05-10T01:07:54;13.00;99.90
52621;DHT22;38515;53.160;6.990;2023-05-10T01:10:21;13.00;99.90
52621;DHT22;38515;53.160;6.990;2023-05-10T01:12:47;12.80;99.90
52621;DHT22;38515;53.160;6.990;2023-05-10T01:15:14;12.80;99.90
52621;DHT22;38515;53.160;6.990;2023-05-10T01:17:43;12.40;99.90
52621;DHT22;38515;53.160;6.990;2023-05-10T01:20:10;12.40;99.90
52621;DHT22;38515;53.160;6.990;2023-05-10T01:28:44;12.20;99.90
52621;DHT22;38515;53.160;6.990;2023-05-10T01:32:07;12.20;99.90
52621;DHT22;38515;53.160;6.990;2023-05-10T01:34:32;12.40;99.90
52621;DHT22;38515;53.160;6.990;2023-05-10T01:37:07;12.30;99.90
52621;DHT22;38515;53.160;6.990;2023-05-10T01:39:47;12.20;99.90
52621;DHT22;38515;53.160;6.990;2023-05-10T01:42:26;12.20;99.90
52621;DHT22;38515;53.160;6.990;2023-05-10T01:47:38;12.50;99.90
52621;DHT22;38515;53.160;6.990;2023-05-10T01:50:10;12.40;99.90
52621;DHT22;38515;53.160;6.990;2023-05-10T01:52:50;12.60;99.90
52621;DHT22;38515;53.160;6.990;2023-05-10T01:55:20;12.20;99.90
52621;DHT22;38515;53.160;6.990;2023-05-10T01:57:49;12.20;99.90
52621;DHT22;38515;53.160;6.990;2023-05-10T02:00:17;12.30;99.90
52621;DHT22;38515;53.160;6.990;2023-05-10T02:02:48;12.20;99.90
52621;DHT22;38515;53.160;6.990;2023-05-10T02:05:16;12.70;99.90
52621;DHT22;38515;53.160;6.990;2023-05-10T02:07:43;12.50;99.90
52621;DHT22;38515;53.160;6.990;2023-05-10T02:10:10;12.70;99.90
52621;DHT22;38515;53.160;6.990;2023-05-10T02:12:42;12.30;99.90
52621;DHT22;38515;53.160;6.990;2023-05-10T02:15:11;12.50;99.90
52621;DHT22;38515;53.160;6.990;2023-05-10T02:17:37;12.40;99.90
52621;DHT22;38515;53.160;6.990;2023-05-10T02:20:08;12.80;99.90
52621;DHT22;38515;53.160;6.990;2023-05-10T02:22:35;12.80;99.90
52621;DHT22;38515;53.160;6.990;2023-05-10T02:25:03;12.70;99.90
52621;DHT22;38515;53.160;6.990;2023-05-10T02:27:30;12.70;99.90
52621;DHT22;38515;53.160;6.990;2023-05-10T02:29:57;12.70;99.90
52621;DHT22;38515;53.160;6.990;2023-05-10T02:32:25;12.30;99.90
52621;DHT22;38515;53.160;6.990;2023-05-10T02:34:52;12.40;99.90
52621;DHT22;38515;53.160;6.990;2023-05-10T02:37:20;12.20;99.90
52621;DHT22;38515;53.160;6.990;2023-05-10T02:39:50;12.90;99.90
52621;DHT22;38515;53.160;6.990;2023-05-10T02:42:19;12.20;99.90
52621;DHT22;38515;53.160;6.990;2023-05-10T02:44:50;12.90;99.90
52621;DHT22;38515;53.160;6.990;2023-05-10T02:47:18;12.60;99.90
52621;DHT22;38515;53.160;6.990;2023-05-10T02:49:45;12.30;99.90
52621;DHT22;38515;53.160;6.990;2023-05-10T02:52:16;12.30;99.90
52621;DHT22;38515;53.160;6.990;2023-05-10T02:54:48;12.40;99.90
52621;DHT22;38515;53.160;6.990;2023-05-10T02:57:25;12.20;99.90
52621;DHT22;38515;53.160;6.990;2023-05-10T02:59:52;12.70;99.90
52621;DHT22;38515;53.160;6.990;2023-05-10T03:02:17;12.00;99.90
52621;DHT22;38515;53.160;6.990;2023-05-10T03:04:43;12.00;99.90
52621;DHT22;38515;53.160;6.990;2023-05-10T03:07:09;12.40;99.90
52621;DHT22;38515;53.160;6.990;2023-05-10T03:09:35;12.50;99.90
52621;DHT22;38515;53.160;6.990;2023-05-10T03:15:09;12.00;99.90
52621;DHT22;38515;53.160;6.990;2023-05-10T03:18:01;12.40;99.90
52621;DHT22;38515;53.160;6.990;2023-05-10T03:20:46;11.90;99.90
52621;DHT22;38515;53.160;6.990;2023-05-10T03:23:30;11.80;99.90
52621;DHT22;38515;53.160;6.990;2023-05-10T03:26:00;11.90;99.90
52621;DHT22;38515;53.160;6.990;2023-05-10T03:28:27;11.80;99.90
52621;DHT22;38515;53.160;6.990;2023-05-10T03:30:54;12.00;99.90
52621;DHT22;38515;53.160;6.990;2023-05-10T03:33:20;12.30;99.90
52621;DHT22;38515;53.160;6.990;2023-05-10T03:35:46;12.00;99.90
52621;DHT22;38515;53.160;6.990;2023-05-10T03:38:12;12.30;99.90
52621;DHT22;38515;53.160;6.990;2023-05-10T03:40:39;11.70;99.90
52621;DHT22;38515;53.160;6.990;2023-05-10T03:43:05;11.70;99.90
52621;DHT22;38515;53.160;6.990;2023-05-10T03:45:31;12.30;99.90
52621;DHT22;38515;53.160;6.990;2023-05-10T03:47:57;12.30;99.90
52621;DHT22;38515;53.160;6.990;2023-05-10T03:50:23;12.40;99.90
52621;DHT22;38515;53.160;6.990;2023-05-10T03:52:49;11.70;99.90
52621;DHT22;38515;53.160;6.990;2023-05-10T03:55:16;11.70;99.90
52621;DHT22;38515;53.160;6.990;2023-05-10T03:57:42;12.30;99.90
52621;DHT22;38515;53.160;6.990;2023-05-10T04:00:08;11.80;99.90
52621;DHT22;38515;53.160;6.990;2023-05-10T04:02:35;12.20;99.90
52621;DHT22;38515;53.160;6.990;2023-05-10T04:05:01;11.70;99.90
52621;DHT22;38515;53.160;6.990;2023-05-10T04:07:27;12.30;99.90
52621;DHT22;38515;53.160;6.990;2023-05-10T04:09:53;12.40;99.90
52621;DHT22;38515;53.160;6.990;2023-05-10T04:12:18;12.40;99.90
52621;DHT22;38515;53.160;6.990;2023-05-10T04:14:44;12.20;99.90
52621;DHT22;38515;53.160;6.990;2023-05-10T04:17:11;12.60;99.90
52621;DHT22;38515;53.160;6.990;2023-05-10T04:19:36;12.40;99.90
52621;DHT22;38515;53.160;6.990;2023-05-10T04:22:03;12.30;99.90
52621;DHT22;38515;53.160;6.990;2023-05-10T04:24:28;11.80;99.90
52621;DHT22;38515;53.160;6.990;2023-05-10T04:26:55;11.90;99.90
52621;DHT22;38515;53.160;6.990;2023-05-10T04:29:21;12.30;99.90
52621;DHT22;38515;53.160;6.990;2023-05-10T04:31:46;11.80;99.90
52621;DHT22;38515;53.160;6.990;2023-05-10T04:34:12;12.50;99.90
52621;DHT22;38515;53.160;6.990;2023-05-10T04:36:38;12.00;99.90
52621;DHT22;38515;53.160;6.990;2023-05-10T04:39:04;11.80;99.90
52621;DHT22;38515;53.160;6.990;2023-05-10T04:41:30;12.50;99.90
52621;DHT22;38515;53.160;6.990;2023-05-10T04:43:56;11.80;99.90
52621;DHT22;38515;53.160;6.990;2023-05-10T04:46:22;12.40;99.90
52621;DHT22;38515;53.160;6.990;2023-05-10T04:48:48;12.00;99.90
52621;DHT22;38515;53.160;6.990;2023-05-10T04:51:13;12.50;99.90
52621;DHT22;38515;53.160;6.990;2023-05-10T04:53:39;11.80;99.90
52621;DHT22;38515;53.160;6.990;2023-05-10T04:56:06;12.10;99.90
52621;DHT22;38515;53.160;6.990;2023-05-10T04:58:32;12.30;99.90
52621;DHT22;38515;53.160;6.990;2023-05-10T05:01:05;12.40;99.90
52621;DHT22;38515;53.160;6.990;2023-05-10T05:03:32;11.80;99.90
52621;DHT22;38515;53.160;6.990;2023-05-10T05:05:58;12.40;99.90
52621;DHT22;38515;53.160;6.990;2023-05-10T05:08:23;12.40;99.90
52621;DHT22;38515;53.160;6.990;2023-05-10T05:10:49;12.40;99.90
52621;DHT22;38515;53.160;6.990;2023-05-10T05:13:18;11.80;99.90
52621;DHT22;38515;53.160;6.990;2023-05-10T05:15:44;12.30;99.90
52621;DHT22;38515;53.160;6.990;2023-05-10T05:18:10;12.40;99.90
52621;DHT22;38515;53.160;6.990;2023-05-10T05:20:36;11.80;99.90
52621;DHT22;38515;53.160;6.990;2023-05-10T05:23:02;11.80;99.90
52621;DHT22;38515;53.160;6.990;2023-05-10T05:25:28;12.00;99.90
52621;DHT22;38515;53.160;6.990;2023-05-10T05:27:54;12.40;99.90
52621;DHT22;38515;53.160;6.990;2023-05-10T05:30:19;12.50;99.90
52621;DHT22;38515;53.160;6.990;2023-05-10T05:32:45;12.50;99.90
52621;DHT22;38515;53.160;6.990;2023-05-10T05:35:12;11.90;99.90
52621;DHT22;38515;53.160;6.990;2023-05-10T05:37:39;12.10;99.90
52621;DHT22;38515;53.160;6.990;2023-05-10T05:40:05;12.50;99.90
52621;DHT22;38515;53.160;6.990;2023-05-10T05:42:31;11.80;99.90
52621;DHT22;38515;53.160;6.990;2023-05-10T05:44:57;12.50;99.90
52621;DHT22;38515;53.160;6.990;2023-05-10T05:47:23;11.80;99.90
52621;DHT22;38515;53.160;6.990;2023-05-10T05:49:49;12.10;99.90
52621;DHT22;38515;53.160;6.990;2023-05-10T05:52:15;12.50;99.90
52621;DHT22;38515;53.160;6.990;2023-05-10T05:54:41;12.40;99.90
52621;DHT22;38515;53.160;6.990;2023-05-10T05:57:07;12.40;99.90
52621;DHT22;38515;53.160;6.990;2023-05-10T05:59:33;11.90;99.90
52621;DHT22;38515;53.160;6.990;2023-05-10T06:01:58;11.80;99.90
52621;DHT22;38515;53.160;6.990;2023-05-10T06:04:26;11.90;99.90
52621;DHT22;38515;53.160;6.990;2023-05-10T06:06:52;11.90;99.90
52621;DHT22;38515;53.160;6.990;2023-05-10T06:09:18;11.90;99.90
52621;DHT22;38515;53.160;6.990;2023-05-10T06:11:44;11.80;99.90
52621;DHT22;38515;53.160;6.990;2023-05-10T06:14:10;12.20;99.90
52621;DHT22;38515;53.160;6.990;2023-05-10T06:16:36;11.80;99.90
52621;DHT22;38515;53.160;6.990;2023-05-10T06:19:02;11.90;99.90
52621;DHT22;38515;53.160;6.990;2023-05-10T06:21:31;12.40;99.90
52621;DHT22;38515;53.160;6.990;2023-05-10T06:23:57;12.20;99.90
52621;DHT22;38515;53.160;6.990;2023-05-10T06:26:23;12.20;99.90
52621;DHT22;38515;53.160;6.990;2023-05-10T06:28:49;12.10;99.90
52621;DHT22;38515;53.160;6.990;2023-05-10T06:31:15;12.40;99.90
52621;DHT22;38515;53.160;6.990;2023-05-10T06:33:41;12.40;99.90
52621;DHT22;38515;53.160;6.990;2023-05-10T06:36:07;12.30;99.90
52621;DHT22;38515;53.160;6.990;2023-05-10T06:38:33;11.90;99.90
52621;DHT22;38515;53.160;6.990;2023-05-10T06:40:59;11.80;99.90
52621;DHT22;38515;53.160;6.990;2023-05-10T06:43:25;11.80;99.90
52621;DHT22;38515;53.160;6.990;2023-05-10T06:45:52;12.50;99.90
52621;DHT22;38515;53.160;6.990;2023-05-10T06:48:17;12.50;99.90
52621;DHT22;38515;53.160;6.990;2023-05-10T06:50:43;12.50;99.90
52621;DHT22;38515;53.160;6.990;2023-05-10T06:53:12;12.30;99.90
52621;DHT22;38515;53.160;6.990;2023-05-10T06:55:39;11.90;99.90
52621;DHT22;38515;53.160;6.990;2023-05-10T06:58:05;12.60;99.90
52621;DHT22;38515;53.160;6.990;2023-05-10T07:00:31;12.50;99.90
52621;DHT22;38515;53.160;6.990;2023-05-10T07:02:57;12.60;99.90
52621;DHT22;38515;53.160;6.990;2023-05-10T07:05:24;12.30;99.90
52621;DHT22;38515;53.160;6.990;2023-05-10T07:07:49;11.90;99.90
52621;DHT22;38515;53.160;6.990;2023-05-10T07:10:17;11.90;99.90
52621;DHT22;38515;53.160;6.990;2023-05-10T07:12:43;11.90;99.90
52621;DHT22;38515;53.160;6.990;2023-05-10T07:15:09;12.60;99.90
52621;DHT22;38515;53.160;6.990;2023-05-10T07:17:35;12.70;99.90
52621;DHT22;38515;53.160;6.990;2023-05-10T07:20:01;12.10;99.90
52621;DHT22;38515;53.160;6.990;2023-05-10T07:22:27;12.20;99.90
52621;DHT22;38515;53.160;6.990;2023-05-10T07:24:53;12.70;99.90
52621;DHT22;38515;53.160;6.990;2023-05-10T07:27:19;12.30;99.90
52621;DHT22;38515;53.160;6.990;2023-05-10T07:29:44;12.40;99.90
52621;DHT22;38515;53.160;6.990;2023-05-10T07:32:11;12.50;99.90
52621;DHT22;38515;53.160;6.990;2023-05-10T07:34:36;12.80;99.90
52621;DHT22;38515;53.160;6.990;2023-05-10T07:37:02;12.20;99.90
52621;DHT22;38515;53.160;6.990;2023-05-10T07:39:28;12.60;99.90
52621;DHT22;38515;53.160;6.990;2023-05-10T07:41:55;12.20;99.90
52621;DHT22;38515;53.160;6.990;2023-05-10T07:44:21;11.90;99.90
52621;DHT22;38515;53.160;6.990;2023-05-10T07:46:47;12.00;99.90
52621;DHT22;38515;53.160;6.990;2023-05-10T07:49:13;12.70;99.90
52621;DHT22;38515;53.160;6.990;2023-05-10T07:51:39;12.70;99.90
52621;DHT22;38515;53.160;6.990;2023-05-10T07:54:05;12.50;99.90
52621;DHT22;38515;53.160;6.990;2023-05-10T07:56:32;11.80;99.90
52621;DHT22;38515;53.160;6.990;2023-05-10T07:59:02;12.50;99.90
52621;DHT22;38515;53.160;6.990;2023-05-10T08:01:34;12.70;99.90
52621;DHT22;38515;53.160;6.990;2023-05-10T08:04:01;11.80;99.90
52621;DHT22;38515;53.160;6.990;2023-05-10T08:06:27;12.30;99.90
52621;DHT22;38515;53.160;6.990;2023-05-10T08:08:55;11.70;99.90
52621;DHT22;38515;53.160;6.990;2023-05-10T08:11:21;12.70;99.90
52621;DHT22;38515;53.160;6.990;2023-05-10T08:13:49;12.10;99.90
52621;DHT22;38515;53.160;6.990;2023-05-10T08:16:16;12.70;99.90
52621;DHT22;38515;53.160;6.990;2023-05-10T08:18:43;12.70;99.90
52621;DHT22;38515;53.160;6.990;2023-05-10T08:21:10;12.70;99.90
52621;DHT22;38515;53.160;6.990;2023-05-10T08:23:39;12.10;99.90
52621;DHT22;38515;53.160;6.990;2023-05-10T08:26:05;12.00;99.90
52621;DHT22;38515;53.160;6.990;2023-05-10T08:28:31;12.80;99.90
52621;DHT22;38515;53.160;6.990;2023-05-10T08:30:57;12.10;99.90
52621;DHT22;38515;53.160;6.990;2023-05-10T08:33:23;12.20;99.90
52621;DHT22;38515;53.160;6.990;2023-05-10T08:35:50;12.60;99.90
52621;DHT22;38515;53.160;6.990;2023-05-10T08:38:18;12.00;99.90
52621;DHT22;38515;53.160;6.990;2023-05-10T08:40:44;12.80;99.90
52621;DHT22;38515;53.160;6.990;2023-05-10T08:43:11;12.70;99.90
52621;DHT22;38515;53.160;6.990;2023-05-10T08:45:40;11.80;99.90
52621;DHT22;38515;53.160;6.990;2023-05-10T08:48:07;12.80;99.90
52621;DHT22;38515;53.160;6.990;2023-05-10T08:50:40;11.80;99.90
52621;DHT22;38515;53.160;6.990;2023-05-10T08:53:10;11.90;99.90
52621;DHT22;38515;53.160;6.990;2023-05-10T08:55:36;12.60;99.90
52621;DHT22;38515;53.160;6.990;2023-05-10T08:58:04;12.40;99.90
52621;DHT22;38515;53.160;6.990;2023-05-10T09:00:30;12.70;99.90
52621;DHT22;38515;53.160;6.990;2023-05-10T09:02:58;12.60;99.90
52621;DHT22;38515;53.160;6.990;2023-05-10T09:05:24;12.80;99.90
52621;DHT22;38515;53.160;6.990;2023-05-10T09:07:50;11.80;99.90
52621;DHT22;38515;53.160;6.990;2023-05-10T09:10:16;12.10;99.90
52621;DHT22;38515;53.160;6.990;2023-05-10T09:12:44;12.80;99.90
52621;DHT22;38515;53.160;6.990;2023-05-10T09:15:11;12.10;99.90
52621;DHT22;38515;53.160;6.990;2023-05-10T09:17:40;12.50;99.90
52621;DHT22;38515;53.160;6.990;2023-05-10T09:20:07;12.70;99.90
52621;DHT22;38515;53.160;6.990;2023-05-10T09:22:36;11.70;99.90
52621;DHT22;38515;53.160;6.990;2023-05-10T09:27:35;11.90;99.90
52621;DHT22;38515;53.160;6.990;2023-05-10T09:30:02;12.00;99.90
52621;DHT22;38515;53.160;6.990;2023-05-10T09:32:38;12.70;99.90
52621;DHT22;38515;53.160;6.990;2023-05-10T09:35:09;11.80;99.90
52621;DHT22;38515;53.160;6.990;2023-05-10T09:37:35;11.90;99.90
52621;DHT22;38515;53.160;6.990;2023-05-10T09:40:04;12.10;99.90
52621;DHT22;38515;53.160;6.990;2023-05-10T09:42:30;11.90;99.90
52621;DHT22;38515;53.160;6.990;2023-05-10T09:45:01;12.70;99.90
52621;DHT22;38515;53.160;6.990;2023-05-10T09:47:27;11.90;99.90
52621;DHT22;38515;53.160;6.990;2023-05-10T09:49:53;12.20;99.90
52621;DHT22;38515;53.160;6.990;2023-05-10T09:52:23;12.90;99.90
52621;DHT22;38515;53.160;6.990;2023-05-10T09:54:53;13.10;99.90
52621;DHT22;38515;53.160;6.990;2023-05-10T09:57:24;11.80;99.90
52621;DHT22;38515;53.160;6.990;2023-05-10T09:59:51;12.90;99.90
52621;DHT22;38515;53.160;6.990;2023-05-10T10:02:19;12.00;99.90
52621;DHT22;38515;53.160;6.990;2023-05-10T10:04:49;11.90;99.90
52621;DHT22;38515;53.160;6.990;2023-05-10T10:07:15;13.10;99.90
52621;DHT22;38515;53.160;6.990;2023-05-10T10:09:47;13.10;99.90
52621;DHT22;38515;53.160;6.990;2023-05-10T10:12:16;13.10;99.90
52621;DHT22;38515;53.160;6.990;2023-05-10T10:14:42;12.90;99.90
52621;DHT22;38515;53.160;6.990;2023-05-10T10:17:09;12.60;99.90
52621;DHT22;38515;53.160;6.990;2023-05-10T10:19:35;13.00;99.90
52621;DHT22;38515;53.160;6.990;2023-05-10T10:22:02;13.00;99.90
52621;DHT22;38515;53.160;6.990;2023-05-10T10:24:31;13.30;99.90
52621;DHT22;38515;53.160;6.990;2023-05-10T10:27:04;12.20;99.90
52621;DHT22;38515;53.160;6.990;2023-05-10T10:32:38;12.50;99.90
52621;DHT22;38515;53.160;6.990;2023-05-10T10:35:08;12.60;99.90
52621;DHT22;38515;53.160;6.990;2023-05-10T10:37:45;13.10;99.90
52621;DHT22;38515;53.160;6.990;2023-05-10T10:40:28;12.90;99.90
52621;DHT22;38515;53.160;6.990;2023-05-10T10:42:55;13.20;99.90
52621;DHT22;38515;53.160;6.990;2023-05-10T10:45:23;12.50;99.90
52621;DHT22;38515;53.160;6.990;2023-05-10T10:48:19;13.30;99.90
52621;DHT22;38515;53.160;6.990;2023-05-10T10:50:45;12.80;99.90
52621;DHT22;38515;53.160;6.990;2023-05-10T10:53:12;12.60;99.90
52621;DHT22;38515;53.160;6.990;2023-05-10T10:55:48;12.80;99.90
52621;DHT22;38515;53.160;6.990;2023-05-10T10:58:29;13.50;99.90
52621;DHT22;38515;53.160;6.990;2023-05-10T11:01:19;13.30;99.90
52621;DHT22;38515;53.160;6.990;2023-05-10T11:06:32;13.60;99.90
52621;DHT22;38515;53.160;6.990;2023-05-10T11:09:00;13.60;99.90
52621;DHT22;38515;53.160;6.990;2023-05-10T11:11:31;12.90;99.90
52621;DHT22;38515;53.160;6.990;2023-05-10T11:14:06;12.80;99.90
52621;DHT22;38515;53.160;6.990;2023-05-10T11:16:44;12.90;99.90
52621;DHT22;38515;53.160;6.990;2023-05-10T11:19:12;13.10;99.90
52621;DHT22;38515;53.160;6.990;2023-05-10T11:24:32;13.80;99.90
52621;DHT22;38515;53.160;6.990;2023-05-10T11:26:59;12.90;99.90
52621;DHT22;38515;53.160;6.990;2023-05-10T11:29:26;13.40;99.90
52621;DHT22;38515;53.160;6.990;2023-05-10T11:31:52;13.20;99.90
52621;DHT22;38515;53.160;6.990;2023-05-10T11:34:30;13.60;99.90
52621;DHT22;38515;53.160;6.990;2023-05-10T11:37:00;14.00;99.90
52621;DHT22;38515;53.160;6.990;2023-05-10T11:39:27;13.80;99.90
52621;DHT22;38515;53.160;6.990;2023-05-10T11:41:54;14.10;99.90
52621;DHT22;38515;53.160;6.990;2023-05-10T11:44:20;13.20;99.90
52621;DHT22;38515;53.160;6.990;2023-05-10T11:46:46;13.50;99.90
52621;DHT22;38515;53.160;6.990;2023-05-10T11:49:12;13.50;99.90
52621;DHT22;38515;53.160;6.990;2023-05-10T11:51:39;13.20;99.90
52621;DHT22;38515;53.160;6.990;2023-05-10T11:54:10;14.10;99.90
52621;DHT22;38515;53.160;6.990;2023-05-10T11:56:40;14.00;99.90
52621;DHT22;38515;53.160;6.990;2023-05-10T11:59:06;14.10;99.90
52621;DHT22;38515;53.160;6.990;2023-05-10T12:01:33;12.70;99.90
52621;DHT22;38515;53.160;6.990;2023-05-10T12:04:00;13.50;99.90
52621;DHT22;38515;53.160;6.990;2023-05-10T12:06:28;13.00;99.90
52621;DHT22;38515;53.160;6.990;2023-05-10T12:08:55;13.30;99.90
52621;DHT22;38515;53.160;6.990;2023-05-10T12:11:24;13.70;99.90
52621;DHT22;38515;53.160;6.990;2023-05-10T12:13:50;14.00;99.90
52621;DHT22;38515;53.160;6.990;2023-05-10T12:16:29;13.10;99.90
52621;DHT22;38515;53.160;6.990;2023-05-10T12:18:59;12.80;99.90
52621;DHT22;38515;53.160;6.990;2023-05-10T12:21:26;13.70;99.90
52621;DHT22;38515;53.160;6.990;2023-05-10T12:23:58;13.90;99.90
52621;DHT22;38515;53.160;6.990;2023-05-10T12:26:24;13.70;99.90
52621;DHT22;38515;53.160;6.990;2023-05-10T12:28:53;13.90;99.90
52621;DHT22;38515;53.160;6.990;2023-05-10T12:31:19;13.20;99.90
52621;DHT22;38515;53.160;6.990;2023-05-10T12:33:45;13.30;99.90
52621;DHT22;38515;53.160;6.990;2023-05-10T12:36:16;13.70;99.90
52621;DHT22;38515;53.160;6.990;2023-05-10T12:38:44;14.00;99.90
52621;DHT22;38515;53.160;6.990;2023-05-10T12:41:17;13.90;99.90
52621;DHT22;38515;53.160;6.990;2023-05-10T12:43:43;13.80;99.90
52621;DHT22;38515;53.160;6.990;2023-05-10T12:46:14;13.40;99.90
52621;DHT22;38515;53.160;6.990;2023-05-10T12:48:41;13.90;99.90
52621;DHT22;38515;53.160;6.990;2023-05-10T12:51:08;13.90;99.90
52621;DHT22;38515;53.160;6.990;2023-05-10T12:53:35;13.50;99.90
52621;DHT22;38515;53.160;6.990;2023-05-10T12:56:02;13.80;99.90
52621;DHT22;38515;53.160;6.990;2023-05-10T12:58:28;14.10;99.90
52621;DHT22;38515;53.160;6.990;2023-05-10T13:00:54;14.10;99.90
52621;DHT22;38515;53.160;6.990;2023-05-10T13:03:22;13.90;99.90
52621;DHT22;38515;53.160;6.990;2023-05-10T13:05:48;13.50;99.90
52621;DHT22;38515;53.160;6.990;2023-05-10T13:08:14;13.40;99.90
52621;DHT22;38515;53.160;6.990;2023-05-10T13:10:43;13.50;99.90
52621;DHT22;38515;53.160;6.990;2023-05-10T13:13:09;14.30;99.90
52621;DHT22;38515;53.160;6.990;2023-05-10T13:15:35;14.30;99.90
52621;DHT22;38515;53.160;6.990;2023-05-10T13:18:01;13.50;99.90
52621;DHT22;38515;53.160;6.990;2023-05-10T13:20:27;14.30;99.90
52621;DHT22;38515;53.160;6.990;2023-05-10T13:22:53;13.50;99.90
52621;DHT22;38515;53.160;6.990;2023-05-10T13:25:19;13.50;99.90
52621;DHT22;38515;53.160;6.990;2023-05-10T13:27:45;13.60;99.90
52621;DHT22;38515;53.160;6.990;2023-05-10T13:30:11;14.50;99.90
52621;DHT22;38515;53.160;6.990;2023-05-10T13:32:38;14.50;99.90
52621;DHT22;38515;53.160;6.990;2023-05-10T13:35:05;14.00;99.90
52621;DHT22;38515;53.160;6.990;2023-05-10T13:37:31;14.10;99.90
52621;DHT22;38515;53.160;6.990;2023-05-10T13:39:57;14.30;99.90
52621;DHT22;38515;53.160;6.990;2023-05-10T13:42:23;14.20;99.90
52621;DHT22;38515;53.160;6.990;2023-05-10T13:44:50;14.30;99.90
52621;DHT22;38515;53.160;6.990;2023-05-10T13:47:16;14.50;99.90
52621;DHT22;38515;53.160;6.990;2023-05-10T13:49:41;14.70;99.90
52621;DHT22;38515;53.160;6.990;2023-05-10T13:52:08;14.50;99.90
52621;DHT22;38515;53.160;6.990;2023-05-10T13:54:36;14.40;99.90
52621;DHT22;38515;53.160;6.990;2023-05-10T13:57:02;14.00;99.90
52621;DHT22;38515;53.160;6.990;2023-05-10T13:59:29;14.80;99.90
52621;DHT22;38515;53.160;6.990;2023-05-10T14:01:57;14.30;99.90
52621;DHT22;38515;53.160;6.990;2023-05-10T14:04:23;14.70;99.90
52621;DHT22;38515;53.160;6.990;2023-05-10T14:06:49;13.90;99.90
52621;DHT22;38515;53.160;6.990;2023-05-10T14:09:16;14.70;99.90
52621;DHT22;38515;53.160;6.990;2023-05-10T14:11:42;14.30;99.90
52621;DHT22;38515;53.160;6.990;2023-05-10T14:14:12;14.30;99.90
52621;DHT22;38515;53.160;6.990;2023-05-10T14:16:42;14.60;99.90
52621;DHT22;38515;53.160;6.990;2023-05-10T14:19:09;14.40;99.90
52621;DHT22;38515;53.160;6.990;2023-05-10T14:21:35;14.50;99.90
52621;DHT22;38515;53.160;6.990;2023-05-10T14:24:01;14.70;99.90
52621;DHT22;38515;53.160;6.990;2023-05-10T14:26:27;14.30;99.90
52621;DHT22;38515;53.160;6.990;2023-05-10T14:28:53;14.90;99.90
52621;DHT22;38515;53.160;6.990;2023-05-10T14:31:19;14.30;99.90
52621;DHT22;38515;53.160;6.990;2023-05-10T14:33:49;14.20;99.90
52621;DHT22;38515;53.160;6.990;2023-05-10T14:36:15;14.20;99.90
52621;DHT22;38515;53.160;6.990;2023-05-10T14:38:41;14.50;99.90
52621;DHT22;38515;53.160;6.990;2023-05-10T14:41:07;14.20;99.90
52621;DHT22;38515;53.160;6.990;2023-05-10T14:43:33;14.30;99.90
52621;DHT22;38515;53.160;6.990;2023-05-10T14:45:59;14.40;99.90
52621;DHT22;38515;53.160;6.990;2023-05-10T14:48:25;14.30;99.90
52621;DHT22;38515;53.160;6.990;2023-05-10T14:50:51;14.60;99.90
52621;DHT22;38515;53.160;6.990;2023-05-10T14:53:18;14.20;99.90
52621;DHT22;38515;53.160;6.990;2023-05-10T14:55:44;14.70;99.90
52621;DHT22;38515;53.160;6.990;2023-05-10T14:58:09;14.60;99.90
52621;DHT22;38515;53.160;6.990;2023-05-10T15:00:35;14.60;99.90
52621;DHT22;38515;53.160;6.990;2023-05-10T15:03:01;14.60;99.90
52621;DHT22;38515;53.160;6.990;2023-05-10T15:05:27;14.30;99.90
52621;DHT22;38515;53.160;6.990;2023-05-10T15:07:53;14.30;99.90
52621;DHT22;38515;53.160;6.990;2023-05-10T15:10:19;14.70;99.90
52621;DHT22;38515;53.160;6.990;2023-05-10T15:12:45;14.90;99.90
52621;DHT22;38515;53.160;6.990;2023-05-10T15:15:13;14.80;99.90
52621;DHT22;38515;53.160;6.990;2023-05-10T15:17:39;14.50;99.90
52621;DHT22;38515;53.160;6.990;2023-05-10T15:20:05;14.40;99.90
52621;DHT22;38515;53.160;6.990;2023-05-10T15:22:31;14.70;99.90
52621;DHT22;38515;53.160;6.990;2023-05-10T15:24:58;14.30;99.90
52621;DHT22;38515;53.160;6.990;2023-05-10T15:27:25;14.60;99.90
52621;DHT22;38515;53.160;6.990;2023-05-10T15:29:52;14.60;99.90
52621;DHT22;38515;53.160;6.990;2023-05-10T15:32:18;14.70;99.90
52621;DHT22;38515;53.160;6.990;2023-05-10T15:34:44;14.50;99.90
52621;DHT22;38515;53.160;6.990;2023-05-10T15:37:10;14.40;99.90
52621;DHT22;38515;53.160;6.990;2023-05-10T15:39:36;14.80;99.90
52621;DHT22;38515;53.160;6.990;2023-05-10T15:42:02;14.60;99.90
52621;DHT22;38515;53.160;6.990;2023-05-10T15:44:31;14.40;99.90
52621;DHT22;38515;53.160;6.990;2023-05-10T15:47:01;14.80;99.90
52621;DHT22;38515;53.160;6.990;2023-05-10T15:49:28;14.80;99.90
52621;DHT22;38515;53.160;6.990;2023-05-10T15:51:54;14.60;99.90
52621;DHT22;38515;53.160;6.990;2023-05-10T15:54:19;15.00;99.90
52621;DHT22;38515;53.160;6.990;2023-05-10T15:56:47;15.10;99.90